sensor_id;sensor_type;location;lat;lon;timestamp;temperature;humidity
55634;DHT22;41504;53.162;6.788;2024-03-17T00:02:14;6.20;99.90
55634;DHT22;41504;53.162;6.788;2024-03-17T00:04:40;6.20;99.90
55634;DHT22;41504;53.162;6.788;2024-03-17T00:07:06;6.10;99.90
55634;DHT22;41504;53.162;6.788;2024-03-17T00:09:31;6.10;99.90
55634;DHT22;41504;53.162;6.788;2024-03-17T00:11:57;6.10;99.90
55634;DHT22;41504;53.162;6.788;2024-03-17T00:14:24;6.00;99.90
55634;DHT22;41504;53.162;6.788;2024-03-17T00:16:50;6.00;99.90
55634;DHT22;41504;53.162;6.788;2024-03-17T00:19:16;6.00;99.90
55634;DHT22;41504;53.162;6.788;2024-03-17T00:21:43;6.10;99.90
55634;DHT22;41504;53.162;6.788;2024-03-17T00:24:09;6.00;99.90
55634;DHT22;41504;53.162;6.788;2024-03-17T00:26:35;6.00;99.90
55634;DHT22;41504;53.162;6.788;2024-03-17T00:29:01;6.00;99.90
55634;DHT22;41504;53.162;6.788;2024-03-17T00:31:28;6.00;99.90
55634;DHT22;41504;53.162;6.788;2024-03-17T00:33:54;6.00;99.90
55634;DHT22;41504;53.162;6.788;2024-03-17T00:36:20;5.90;99.90
55634;DHT22;41504;53.162;6.788;2024-03-17T00:38:46;6.00;99.90
55634;DHT22;41504;53.162;6.788;2024-03-17T00:41:11;5.90;99.90
55634;DHT22;41504;53.162;6.788;2024-03-17T00:43:37;5.90;99.90
55634;DHT22;41504;53.162;6.788;2024-03-17T00:46:03;5.90;99.90
55634;DHT22;41504;53.162;6.788;2024-03-17T00:48:29;5.90;99.90
55634;DHT22;41504;53.162;6.788;2024-03-17T00:50:58;5.80;99.90
55634;DHT22;41504;53.162;6.788;2024-03-17T00:53:28;5.80;99.90
55634;DHT22;41504;53.162;6.788;2024-03-17T00:55:55;5.80;99.90
55634;DHT22;41504;53.162;6.788;2024-03-17T00:58:23;6.00;99.90
55634;DHT22;41504;53.162;6.788;2024-03-17T01:00:49;5.70;99.90
55634;DHT22;41504;53.162;6.788;2024-03-17T01:03:16;5.70;99.90
55634;DHT22;41504;53.162;6.788;2024-03-17T01:05:42;5.70;99.90
55634;DHT22;41504;53.162;6.788;2024-03-17T01:08:10;5.60;99.90
55634;DHT22;41504;53.162;6.788;2024-03-17T01:10:40;5.60;99.90
55634;DHT22;41504;53.162;6.788;2024-03-17T01:13:09;5.60;99.90
55634;DHT22;41504;53.162;6.788;2024-03-17T01:15:39;5.50;99.90
55634;DHT22;41504;53.162;6.788;2024-03-17T01:18:05;5.50;99.90
55634;DHT22;41504;53.162;6.788;2024-03-17T01:20:32;5.50;99.90
55634;DHT22;41504;53.162;6.788;2024-03-17T01:22:59;5.40;99.90
55634;DHT22;41504;53.162;6.788;2024-03-17T01:25:25;5.40;99.90
55634;DHT22;41504;53.162;6.788;2024-03-17T01:27:52;5.30;99.90
55634;DHT22;41504;53.162;6.788;2024-03-17T01:30:18;5.30;99.90
55634;DHT22;41504;53.162;6.788;2024-03-17T01:32:47;5.30;99.90
55634;DHT22;41504;53.162;6.788;2024-03-17T01:35:14;5.30;99.90
55634;DHT22;41504;53.162;6.788;2024-03-17T01:37:40;5.30;99.90
55634;DHT22;41504;53.162;6.788;2024-03-17T01:40:06;5.20;99.90
55634;DHT22;41504;53.162;6.788;2024-03-17T01:42:39;5.20;99.90
55634;DHT22;41504;53.162;6.788;2024-03-17T01:47:43;5.20;99.90
55634;DHT22;41504;53.162;6.788;2024-03-17T01:50:09;5.10;99.90
55634;DHT22;41504;53.162;6.788;2024-03-17T01:52:38;5.10;99.90
55634;DHT22;41504;53.162;6.788;2024-03-17T01:55:04;5.10;99.90
55634;DHT22;41504;53.162;6.788;2024-03-17T01:57:30;5.10;99.90
55634;DHT22;41504;53.162;6.788;2024-03-17T01:59:57;4.90;99.90
55634;DHT22;41504;53.162;6.788;2024-03-17T02:02:22;4.80;99.90
55634;DHT22;41504;53.162;6.788;2024-03-17T02:04:48;4.80;99.90
55634;DHT22;41504;53.162;6.788;2024-03-17T02:07:14;4.80;99.90
55634;DHT22;41504;53.162;6.788;2024-03-17T02:09:41;4.80;99.90
55634;DHT22;41504;53.162;6.788;2024-03-17T02:12:08;4.80;99.90
55634;DHT22;41504;53.162;6.788;2024-03-17T02:14:35;4.70;99.90
55634;DHT22;41504;53.162;6.788;2024-03-17T02:17:01;4.90;99.90
55634;DHT22;41504;53.162;6.788;2024-03-17T02:19:27;4.70;99.90
55634;DHT22;41504;53.162;6.788;2024-03-17T02:21:53;4.80;99.90
55634;DHT22;41504;53.162;6.788;2024-03-17T02:24:19;4.80;99.90
55634;DHT22;41504;53.162;6.788;2024-03-17T02:26:45;4.70;99.90
55634;DHT22;41504;53.162;6.788;2024-03-17T02:29:10;4.70;99.90
55634;DHT22;41504;53.162;6.788;2024-03-17T02:31:36;4.70;99.90
55634;DHT22;41504;53.162;6.788;2024-03-17T02:34:02;4.70;99.90
55634;DHT22;41504;53.162;6.788;2024-03-17T02:36:27;4.70;99.90
55634;DHT22;41504;53.162;6.788;2024-03-17T02:38:53;4.70;99.90
55634;DHT22;41504;53.162;6.788;2024-03-17T02:41:37;4.60;99.90
55634;DHT22;41504;53.162;6.788;2024-03-17T02:44:07;4.60;99.90
55634;DHT22;41504;53.162;6.788;2024-03-17T02:46:32;4.60;99.90
55634;DHT22;41504;53.162;6.788;2024-03-17T02:48:59;4.60;99.90
55634;DHT22;41504;53.162;6.788;2024-03-17T02:51:25;4.60;99.90
55634;DHT22;41504;53.162;6.788;2024-03-17T02:53:51;4.70;99.90
55634;DHT22;41504;53.162;6.788;2024-03-17T02:56:17;4.60;99.90
55634;DHT22;41504;53.162;6.788;2024-03-17T02:58:44;4.50;99.90
55634;DHT22;41504;53.162;6.788;2024-03-17T03:01:12;4.60;99.90
55634;DHT22;41504;53.162;6.788;2024-03-17T03:03:37;4.50;99.90
55634;DHT22;41504;53.162;6.788;2024-03-17T03:06:04;4.50;99.90
55634;DHT22;41504;53.162;6.788;2024-03-17T03:08:40;4.50;99.90
55634;DHT22;41504;53.162;6.788;2024-03-17T03:11:11;4.50;99.90
55634;DHT22;41504;53.162;6.788;2024-03-17T03:13:41;4.50;99.90
55634;DHT22;41504;53.162;6.788;2024-03-17T03:16:09;4.50;99.90
55634;DHT22;41504;53.162;6.788;2024-03-17T03:18:36;4.50;99.90
55634;DHT22;41504;53.162;6.788;2024-03-17T03:21:03;4.50;99.90
55634;DHT22;41504;53.162;6.788;2024-03-17T03:23:28;4.50;99.90
55634;DHT22;41504;53.162;6.788;2024-03-17T03:26:02;4.60;99.90
55634;DHT22;41504;53.162;6.788;2024-03-17T03:28:36;4.60;99.90
55634;DHT22;41504;53.162;6.788;2024-03-17T03:31:02;4.60;99.90
55634;DHT22;41504;53.162;6.788;2024-03-17T03:33:28;4.60;99.90
55634;DHT22;41504;53.162;6.788;2024-03-17T03:35:54;4.60;99.90
55634;DHT22;41504;53.162;6.788;2024-03-17T03:38:21;4.70;99.90
55634;DHT22;41504;53.162;6.788;2024-03-17T03:40:48;4.70;99.90
55634;DHT22;41504;53.162;6.788;2024-03-17T03:43:14;4.70;99.90
55634;DHT22;41504;53.162;6.788;2024-03-17T03:45:40;4.70;99.90
55634;DHT22;41504;53.162;6.788;2024-03-17T03:48:07;4.70;99.90
55634;DHT22;41504;53.162;6.788;2024-03-17T03:50:34;4.80;99.90
55634;DHT22;41504;53.162;6.788;2024-03-17T03:53:00;4.80;99.90
55634;DHT22;41504;53.162;6.788;2024-03-17T03:55:26;4.80;99.90
55634;DHT22;41504;53.162;6.788;2024-03-17T03:57:52;4.80;99.90
55634;DHT22;41504;53.162;6.788;2024-03-17T04:00:21;4.80;99.90
55634;DHT22;41504;53.162;6.788;2024-03-17T04:02:48;4.90;99.90
55634;DHT22;41504;53.162;6.788;2024-03-17T04:05:15;4.90;99.90
55634;DHT22;41504;53.162;6.788;2024-03-17T04:07:40;4.90;99.90
55634;DHT22;41504;53.162;6.788;2024-03-17T04:10:09;5.00;99.90
55634;DHT22;41504;53.162;6.788;2024-03-17T04:12:35;5.00;99.90
55634;DHT22;41504;53.162;6.788;2024-03-17T04:15:00;5.00;99.90
55634;DHT22;41504;53.162;6.788;2024-03-17T04:17:26;5.00;99.90
55634;DHT22;41504;53.162;6.788;2024-03-17T04:19:53;5.00;99.90
55634;DHT22;41504;53.162;6.788;2024-03-17T04:22:20;5.00;99.90
55634;DHT22;41504;53.162;6.788;2024-03-17T04:24:48;5.10;99.90
55634;DHT22;41504;53.162;6.788;2024-03-17T04:27:19;5.00;99.90
55634;DHT22;41504;53.162;6.788;2024-03-17T04:29:47;4.90;99.90
55634;DHT22;41504;53.162;6.788;2024-03-17T04:32:13;4.90;99.90
55634;DHT22;41504;53.162;6.788;2024-03-17T04:34:40;4.80;99.90
55634;DHT22;41504;53.162;6.788;2024-03-17T04:37:05;4.80;99.90
55634;DHT22;41504;53.162;6.788;2024-03-17T04:39:31;4.80;99.90
55634;DHT22;41504;53.162;6.788;2024-03-17T04:41:57;4.90;99.90
55634;DHT22;41504;53.162;6.788;2024-03-17T04:44:23;4.90;99.90
55634;DHT22;41504;53.162;6.788;2024-03-17T04:46:48;4.90;99.90
55634;DHT22;41504;53.162;6.788;2024-03-17T04:49:14;4.90;99.90
55634;DHT22;41504;53.162;6.788;2024-03-17T04:51:40;4.90;99.90
55634;DHT22;41504;53.162;6.788;2024-03-17T04:54:06;4.90;99.90
55634;DHT22;41504;53.162;6.788;2024-03-17T04:56:32;4.90;99.90
55634;DHT22;41504;53.162;6.788;2024-03-17T04:58:58;5.00;99.90
55634;DHT22;41504;53.162;6.788;2024-03-17T05:01:25;5.00;99.90
55634;DHT22;41504;53.162;6.788;2024-03-17T05:03:53;5.00;99.90
55634;DHT22;41504;53.162;6.788;2024-03-17T05:06:19;5.00;99.90
55634;DHT22;41504;53.162;6.788;2024-03-17T05:08:45;5.10;99.90
55634;DHT22;41504;53.162;6.788;2024-03-17T05:11:11;5.10;99.90
55634;DHT22;41504;53.162;6.788;2024-03-17T05:13:37;5.10;99.90
55634;DHT22;41504;53.162;6.788;2024-03-17T05:16:06;5.10;99.90
55634;DHT22;41504;53.162;6.788;2024-03-17T05:18:32;5.20;99.90
55634;DHT22;41504;53.162;6.788;2024-03-17T05:21:05;5.20;99.90
55634;DHT22;41504;53.162;6.788;2024-03-17T05:23:33;5.20;99.90
55634;DHT22;41504;53.162;6.788;2024-03-17T05:25:59;5.20;99.90
55634;DHT22;41504;53.162;6.788;2024-03-17T05:28:27;5.20;99.90
55634;DHT22;41504;53.162;6.788;2024-03-17T05:30:53;5.20;99.90
55634;DHT22;41504;53.162;6.788;2024-03-17T05:33:22;5.20;99.90
55634;DHT22;41504;53.162;6.788;2024-03-17T05:35:49;5.20;99.90
55634;DHT22;41504;53.162;6.788;2024-03-17T05:38:18;5.20;99.90
55634;DHT22;41504;53.162;6.788;2024-03-17T05:40:52;5.30;99.90
55634;DHT22;41504;53.162;6.788;2024-03-17T05:43:18;5.30;99.90
55634;DHT22;41504;53.162;6.788;2024-03-17T05:45:44;5.30;99.90
55634;DHT22;41504;53.162;6.788;2024-03-17T05:48:10;5.30;99.90
55634;DHT22;41504;53.162;6.788;2024-03-17T05:50:35;5.30;99.90
55634;DHT22;41504;53.162;6.788;2024-03-17T05:53:01;5.30;99.90
55634;DHT22;41504;53.162;6.788;2024-03-17T05:55:27;5.30;99.90
55634;DHT22;41504;53.162;6.788;2024-03-17T05:57:52;5.40;99.90
55634;DHT22;41504;53.162;6.788;2024-03-17T06:00:19;5.40;99.90
55634;DHT22;41504;53.162;6.788;2024-03-17T06:02:46;5.30;99.90
55634;DHT22;41504;53.162;6.788;2024-03-17T06:05:12;5.40;99.90
55634;DHT22;41504;53.162;6.788;2024-03-17T06:07:40;5.40;99.90
55634;DHT22;41504;53.162;6.788;2024-03-17T06:10:06;5.40;99.90
55634;DHT22;41504;53.162;6.788;2024-03-17T06:12:32;5.40;99.90
55634;DHT22;41504;53.162;6.788;2024-03-17T06:14:58;5.50;99.90
55634;DHT22;41504;53.162;6.788;2024-03-17T06:17:25;5.40;99.90
55634;DHT22;41504;53.162;6.788;2024-03-17T06:19:52;5.40;99.90
55634;DHT22;41504;53.162;6.788;2024-03-17T06:22:17;5.50;99.90
55634;DHT22;41504;53.162;6.788;2024-03-17T06:24:43;5.40;99.90
55634;DHT22;41504;53.162;6.788;2024-03-17T06:27:09;5.50;99.90
55634;DHT22;41504;53.162;6.788;2024-03-17T06:29:34;5.50;99.90
55634;DHT22;41504;53.162;6.788;2024-03-17T06:32:00;5.50;99.90
55634;DHT22;41504;53.162;6.788;2024-03-17T06:34:26;5.50;99.90
55634;DHT22;41504;53.162;6.788;2024-03-17T06:36:52;5.50;99.90
55634;DHT22;41504;53.162;6.788;2024-03-17T06:39:17;5.50;99.90
55634;DHT22;41504;53.162;6.788;2024-03-17T06:41:45;5.60;99.90
55634;DHT22;41504;53.162;6.788;2024-03-17T06:44:11;5.60;99.90
55634;DHT22;41504;53.162;6.788;2024-03-17T06:46:36;5.60;99.90
55634;DHT22;41504;53.162;6.788;2024-03-17T06:49:02;5.70;99.90
55634;DHT22;41504;53.162;6.788;2024-03-17T06:51:28;5.70;99.90
55634;DHT22;41504;53.162;6.788;2024-03-17T06:53:53;5.80;99.90
55634;DHT22;41504;53.162;6.788;2024-03-17T06:56:19;5.80;99.90
55634;DHT22;41504;53.162;6.788;2024-03-17T06:58:45;5.90;99.90
55634;DHT22;41504;53.162;6.788;2024-03-17T07:01:10;6.00;99.90
55634;DHT22;41504;53.162;6.788;2024-03-17T07:03:36;6.00;99.90
55634;DHT22;41504;53.162;6.788;2024-03-17T07:06:02;6.00;99.90
55634;DHT22;41504;53.162;6.788;2024-03-17T07:08:29;6.00;99.90
55634;DHT22;41504;53.162;6.788;2024-03-17T07:11:03;6.20;99.90
55634;DHT22;41504;53.162;6.788;2024-03-17T07:13:36;6.10;99.90
55634;DHT22;41504;53.162;6.788;2024-03-17T07:16:04;6.10;99.90
55634;DHT22;41504;53.162;6.788;2024-03-17T07:18:34;6.10;99.90
55634;DHT22;41504;53.162;6.788;2024-03-17T07:21:02;6.10;99.90
55634;DHT22;41504;53.162;6.788;2024-03-17T07:23:29;6.20;99.90
55634;DHT22;41504;53.162;6.788;2024-03-17T07:25:56;6.30;99.90
55634;DHT22;41504;53.162;6.788;2024-03-17T07:28:23;6.30;99.90
55634;DHT22;41504;53.162;6.788;2024-03-17T07:30:50;6.40;99.90
55634;DHT22;41504;53.162;6.788;2024-03-17T07:33:16;6.50;99.90
55634;DHT22;41504;53.162;6.788;2024-03-17T07:35:56;6.50;99.90
55634;DHT22;41504;53.162;6.788;2024-03-17T07:38:23;6.50;99.90
55634;DHT22;41504;53.162;6.788;2024-03-17T07:41:05;6.60;99.90
55634;DHT22;41504;53.162;6.788;2024-03-17T07:43:33;6.70;99.90
55634;DHT22;41504;53.162;6.788;2024-03-17T07:46:07;6.70;99.90
55634;DHT22;41504;53.162;6.788;2024-03-17T07:48:35;6.80;99.90
55634;DHT22;41504;53.162;6.788;2024-03-17T07:53:29;6.90;99.90
55634;DHT22;41504;53.162;6.788;2024-03-17T07:56:02;6.90;99.90
55634;DHT22;41504;53.162;6.788;2024-03-17T07:58:30;7.00;99.90
55634;DHT22;41504;53.162;6.788;2024-03-17T08:01:03;7.10;99.90
55634;DHT22;41504;53.162;6.788;2024-03-17T08:03:30;7.30;99.90
55634;DHT22;41504;53.162;6.788;2024-03-17T08:06:01;7.40;99.90
55634;DHT22;41504;53.162;6.788;2024-03-17T08:08:27;7.50;99.90
55634;DHT22;41504;53.162;6.788;2024-03-17T08:10:53;7.50;99.90
55634;DHT22;41504;53.162;6.788;2024-03-17T08:13:27;7.60;99.90
55634;DHT22;41504;53.162;6.788;2024-03-17T08:15:58;7.60;99.90
55634;DHT22;41504;53.162;6.788;2024-03-17T08:18:25;7.60;99.90
55634;DHT22;41504;53.162;6.788;2024-03-17T08:20:52;7.70;99.90
55634;DHT22;41504;53.162;6.788;2024-03-17T08:23:19;7.70;99.90
55634;DHT22;41504;53.162;6.788;2024-03-17T08:25:55;7.70;99.90
55634;DHT22;41504;53.162;6.788;2024-03-17T08:28:22;7.70;99.90
55634;DHT22;41504;53.162;6.788;2024-03-17T08:30:55;7.70;99.90
55634;DHT22;41504;53.162;6.788;2024-03-17T08:33:22;7.70;99.90
55634;DHT22;41504;53.162;6.788;2024-03-17T08:36:03;7.80;99.90
55634;DHT22;41504;53.162;6.788;2024-03-17T08:38:31;7.80;99.90
55634;DHT22;41504;53.162;6.788;2024-03-17T08:41:08;7.90;99.90
55634;DHT22;41504;53.162;6.788;2024-03-17T08:43:35;7.90;99.90
55634;DHT22;41504;53.162;6.788;2024-03-17T08:46:06;7.90;99.90
55634;DHT22;41504;53.162;6.788;2024-03-17T08:48:33;8.00;99.90
55634;DHT22;41504;53.162;6.788;2024-03-17T08:51:01;8.10;99.90
55634;DHT22;41504;53.162;6.788;2024-03-17T08:53:27;8.10;99.90
55634;DHT22;41504;53.162;6.788;2024-03-17T08:55:54;8.10;99.90
55634;DHT22;41504;53.162;6.788;2024-03-17T08:58:20;8.10;99.90
55634;DHT22;41504;53.162;6.788;2024-03-17T09:00:46;8.10;99.90
55634;DHT22;41504;53.162;6.788;2024-03-17T09:03:12;8.20;99.90
55634;DHT22;41504;53.162;6.788;2024-03-17T09:05:42;8.20;99.90
55634;DHT22;41504;53.162;6.788;2024-03-17T09:08:09;8.20;99.90
55634;DHT22;41504;53.162;6.788;2024-03-17T09:10:43;8.20;99.90
55634;DHT22;41504;53.162;6.788;2024-03-17T09:13:17;8.30;99.90
55634;DHT22;41504;53.162;6.788;2024-03-17T09:15:57;8.30;99.90
55634;DHT22;41504;53.162;6.788;2024-03-17T09:18:24;8.20;99.90
55634;DHT22;41504;53.162;6.788;2024-03-17T09:21:00;8.30;99.90
55634;DHT22;41504;53.162;6.788;2024-03-17T09:23:26;8.40;99.90
55634;DHT22;41504;53.162;6.788;2024-03-17T09:26:07;8.40;99.90
55634;DHT22;41504;53.162;6.788;2024-03-17T09:28:41;8.40;99.90
55634;DHT22;41504;53.162;6.788;2024-03-17T09:31:07;8.50;99.90
55634;DHT22;41504;53.162;6.788;2024-03-17T09:33:34;8.60;99.90
55634;DHT22;41504;53.162;6.788;2024-03-17T09:36:05;8.60;99.90
55634;DHT22;41504;53.162;6.788;2024-03-17T09:38:35;8.70;99.90
55634;DHT22;41504;53.162;6.788;2024-03-17T09:41:02;8.70;99.90
55634;DHT22;41504;53.162;6.788;2024-03-17T09:43:29;8.70;99.90
55634;DHT22;41504;53.162;6.788;2024-03-17T09:45:55;8.80;99.90
55634;DHT22;41504;53.162;6.788;2024-03-17T09:48:25;8.80;99.90
55634;DHT22;41504;53.162;6.788;2024-03-17T09:50:53;8.90;99.90
55634;DHT22;41504;53.162;6.788;2024-03-17T09:53:25;9.00;99.90
55634;DHT22;41504;53.162;6.788;2024-03-17T09:55:57;9.00;99.90
55634;DHT22;41504;53.162;6.788;2024-03-17T09:58:22;9.10;99.90
55634;DHT22;41504;53.162;6.788;2024-03-17T10:00:48;9.10;99.90
55634;DHT22;41504;53.162;6.788;2024-03-17T10:06:44;9.30;99.90
55634;DHT22;41504;53.162;6.788;2024-03-17T10:09:15;9.40;99.90
55634;DHT22;41504;53.162;6.788;2024-03-17T10:11:46;9.50;99.90
55634;DHT22;41504;53.162;6.788;2024-03-17T10:14:16;9.50;99.90
55634;DHT22;41504;53.162;6.788;2024-03-17T10:16:43;9.50;99.90
55634;DHT22;41504;53.162;6.788;2024-03-17T10:19:14;9.50;99.90
55634;DHT22;41504;53.162;6.788;2024-03-17T10:21:42;9.60;99.90
55634;DHT22;41504;53.162;6.788;2024-03-17T10:24:13;9.60;99.90
55634;DHT22;41504;53.162;6.788;2024-03-17T10:26:50;9.70;99.90
55634;DHT22;41504;53.162;6.788;2024-03-17T10:29:34;9.70;99.90
55634;DHT22;41504;53.162;6.788;2024-03-17T10:32:05;9.80;99.90
55634;DHT22;41504;53.162;6.788;2024-03-17T10:34:38;9.90;99.90
55634;DHT22;41504;53.162;6.788;2024-03-17T10:39:44;10.00;99.90
55634;DHT22;41504;53.162;6.788;2024-03-17T10:42:11;10.00;99.90
55634;DHT22;41504;53.162;6.788;2024-03-17T10:44:38;10.10;99.90
55634;DHT22;41504;53.162;6.788;2024-03-17T10:47:05;10.10;99.90
55634;DHT22;41504;53.162;6.788;2024-03-17T10:49:36;10.10;99.90
55634;DHT22;41504;53.162;6.788;2024-03-17T10:52:16;10.20;99.90
55634;DHT22;41504;53.162;6.788;2024-03-17T10:54:49;10.30;99.90
55634;DHT22;41504;53.162;6.788;2024-03-17T11:00:02;10.40;99.90
55634;DHT22;41504;53.162;6.788;2024-03-17T11:02:33;10.50;99.90
55634;DHT22;41504;53.162;6.788;2024-03-17T11:05:05;10.50;99.90
55634;DHT22;41504;53.162;6.788;2024-03-17T11:07:32;10.60;99.90
55634;DHT22;41504;53.162;6.788;2024-03-17T11:09:59;10.60;99.90
55634;DHT22;41504;53.162;6.788;2024-03-17T11:12:50;10.70;99.90
55634;DHT22;41504;53.162;6.788;2024-03-17T11:17:49;10.80;99.90
55634;DHT22;41504;53.162;6.788;2024-03-17T11:20:27;10.80;99.90
55634;DHT22;41504;53.162;6.788;2024-03-17T11:22:58;10.90;99.90
55634;DHT22;41504;53.162;6.788;2024-03-17T11:27:59;10.90;99.90
55634;DHT22;41504;53.162;6.788;2024-03-17T11:30:41;11.00;99.90
55634;DHT22;41504;53.162;6.788;2024-03-17T11:39:01;11.00;99.90
55634;DHT22;41504;53.162;6.788;2024-03-17T11:46:53;11.10;99.90
55634;DHT22;41504;53.162;6.788;2024-03-17T11:51:51;11.20;99.90
55634;DHT22;41504;53.162;6.788;2024-03-17T11:54:23;11.20;99.90
55634;DHT22;41504;53.162;6.788;2024-03-17T11:56:51;11.20;99.90
55634;DHT22;41504;53.162;6.788;2024-03-17T11:59:18;11.30;99.90
55634;DHT22;41504;53.162;6.788;2024-03-17T12:01:46;11.30;99.90
55634;DHT22;41504;53.162;6.788;2024-03-17T12:04:14;11.40;99.90
55634;DHT22;41504;53.162;6.788;2024-03-17T12:06:56;11.70;99.90
55634;DHT22;41504;53.162;6.788;2024-03-17T12:09:26;11.50;99.90
55634;DHT22;41504;53.162;6.788;2024-03-17T12:14:32;11.60;99.90
55634;DHT22;41504;53.162;6.788;2024-03-17T12:17:00;11.60;99.90
55634;DHT22;41504;53.162;6.788;2024-03-17T12:19:27;11.60;99.90
55634;DHT22;41504;53.162;6.788;2024-03-17T12:21:57;11.60;99.90
55634;DHT22;41504;53.162;6.788;2024-03-17T12:24:28;11.60;99.90
55634;DHT22;41504;53.162;6.788;2024-03-17T12:26:55;11.60;99.90
55634;DHT22;41504;53.162;6.788;2024-03-17T12:31:54;11.50;99.90
55634;DHT22;41504;53.162;6.788;2024-03-17T12:34:21;11.50;99.90
55634;DHT22;41504;53.162;6.788;2024-03-17T12:36:48;11.50;99.90
55634;DHT22;41504;53.162;6.788;2024-03-17T12:41:45;11.50;99.90
55634;DHT22;41504;53.162;6.788;2024-03-17T12:44:25;11.50;99.90
55634;DHT22;41504;53.162;6.788;2024-03-17T12:46:55;11.50;99.90
55634;DHT22;41504;53.162;6.788;2024-03-17T12:49:22;11.60;99.90
55634;DHT22;41504;53.162;6.788;2024-03-17T12:51:51;11.60;99.90
55634;DHT22;41504;53.162;6.788;2024-03-17T12:54:19;11.70;99.90
55634;DHT22;41504;53.162;6.788;2024-03-17T12:56:45;11.80;99.90
55634;DHT22;41504;53.162;6.788;2024-03-17T12:59:43;11.90;99.90
55634;DHT22;41504;53.162;6.788;2024-03-17T13:02:27;12.00;99.90
55634;DHT22;41504;53.162;6.788;2024-03-17T13:05:14;12.00;99.90
55634;DHT22;41504;53.162;6.788;2024-03-17T13:07:41;12.00;99.90
55634;DHT22;41504;53.162;6.788;2024-03-17T13:10:07;12.00;99.90
55634;DHT22;41504;53.162;6.788;2024-03-17T13:12:34;12.00;99.90
55634;DHT22;41504;53.162;6.788;2024-03-17T13:15:00;11.90;99.90
55634;DHT22;41504;53.162;6.788;2024-03-17T13:17:26;12.00;99.90
55634;DHT22;41504;53.162;6.788;2024-03-17T13:19:55;11.90;99.50
55634;DHT22;41504;53.162;6.788;2024-03-17T13:22:20;11.90;99.60
55634;DHT22;41504;53.162;6.788;2024-03-17T13:24:46;11.90;99.50
55634;DHT22;41504;53.162;6.788;2024-03-17T13:27:12;11.80;99.20
55634;DHT22;41504;53.162;6.788;2024-03-17T13:29:40;11.80;99.40
55634;DHT22;41504;53.162;6.788;2024-03-17T13:32:09;11.80;99.60
55634;DHT22;41504;53.162;6.788;2024-03-17T13:34:35;11.80;99.40
55634;DHT22;41504;53.162;6.788;2024-03-17T13:37:01;11.80;99.00
55634;DHT22;41504;53.162;6.788;2024-03-17T13:39:30;11.70;99.30
55634;DHT22;41504;53.162;6.788;2024-03-17T13:41:57;11.70;99.60
55634;DHT22;41504;53.162;6.788;2024-03-17T13:44:31;11.80;99.50
55634;DHT22;41504;53.162;6.788;2024-03-17T13:46:58;11.70;99.20
55634;DHT22;41504;53.162;6.788;2024-03-17T13:49:24;11.70;99.00
55634;DHT22;41504;53.162;6.788;2024-03-17T13:51:52;11.70;99.20
55634;DHT22;41504;53.162;6.788;2024-03-17T13:54:18;11.70;99.00
55634;DHT22;41504;53.162;6.788;2024-03-17T13:56:48;11.70;99.30
55634;DHT22;41504;53.162;6.788;2024-03-17T13:59:17;11.70;99.60
55634;DHT22;41504;53.162;6.788;2024-03-17T14:01:43;11.70;99.30
55634;DHT22;41504;53.162;6.788;2024-03-17T14:04:16;11.70;99.40
55634;DHT22;41504;53.162;6.788;2024-03-17T14:06:46;11.70;99.50
55634;DHT22;41504;53.162;6.788;2024-03-17T14:09:15;11.70;99.30
55634;DHT22;41504;53.162;6.788;2024-03-17T14:11:43;11.70;99.00
55634;DHT22;41504;53.162;6.788;2024-03-17T14:14:12;11.70;98.80
55634;DHT22;41504;53.162;6.788;2024-03-17T14:16:38;11.70;99.00
55634;DHT22;41504;53.162;6.788;2024-03-17T14:19:06;11.70;99.30
55634;DHT22;41504;53.162;6.788;2024-03-17T14:21:32;11.70;99.60
55634;DHT22;41504;53.162;6.788;2024-03-17T14:23:58;11.80;98.90
55634;DHT22;41504;53.162;6.788;2024-03-17T14:26:25;11.80;99.00
55634;DHT22;41504;53.162;6.788;2024-03-17T14:28:50;11.70;98.80
55634;DHT22;41504;53.162;6.788;2024-03-17T14:31:17;11.70;98.60
55634;DHT22;41504;53.162;6.788;2024-03-17T14:33:43;11.70;97.50
55634;DHT22;41504;53.162;6.788;2024-03-17T14:36:09;11.70;97.50
55634;DHT22;41504;53.162;6.788;2024-03-17T14:38:35;11.70;97.20
55634;DHT22;41504;53.162;6.788;2024-03-17T14:41:01;11.60;97.60
55634;DHT22;41504;53.162;6.788;2024-03-17T14:43:27;11.60;96.80
55634;DHT22;41504;53.162;6.788;2024-03-17T14:45:53;11.60;97.30
55634;DHT22;41504;53.162;6.788;2024-03-17T14:48:19;11.60;96.60
55634;DHT22;41504;53.162;6.788;2024-03-17T14:50:45;11.50;96.50
55634;DHT22;41504;53.162;6.788;2024-03-17T14:53:10;11.50;96.60
55634;DHT22;41504;53.162;6.788;2024-03-17T14:55:36;11.50;97.20
55634;DHT22;41504;53.162;6.788;2024-03-17T14:58:02;11.50;97.20
55634;DHT22;41504;53.162;6.788;2024-03-17T15:00:28;11.50;97.30
55634;DHT22;41504;53.162;6.788;2024-03-17T15:02:56;11.50;97.60
55634;DHT22;41504;53.162;6.788;2024-03-17T15:05:22;11.40;97.70
55634;DHT22;41504;53.162;6.788;2024-03-17T15:07:49;11.50;98.00
55634;DHT22;41504;53.162;6.788;2024-03-17T15:10:15;11.50;97.60
55634;DHT22;41504;53.162;6.788;2024-03-17T15:12:41;11.50;97.00
55634;DHT22;41504;53.162;6.788;2024-03-17T15:15:07;11.50;97.00
55634;DHT22;41504;53.162;6.788;2024-03-17T15:17:37;11.40;97.20
55634;DHT22;41504;53.162;6.788;2024-03-17T15:20:02;11.50;97.10
55634;DHT22;41504;53.162;6.788;2024-03-17T15:22:45;11.40;97.40
55634;DHT22;41504;53.162;6.788;2024-03-17T15:25:12;11.40;96.80
55634;DHT22;41504;53.162;6.788;2024-03-17T15:27:40;11.40;96.20
55634;DHT22;41504;53.162;6.788;2024-03-17T15:30:07;11.40;96.50
55634;DHT22;41504;53.162;6.788;2024-03-17T15:32:33;11.40;96.50
55634;DHT22;41504;53.162;6.788;2024-03-17T15:34:59;11.30;96.80
55634;DHT22;41504;53.162;6.788;2024-03-17T15:37:26;11.30;96.60
55634;DHT22;41504;53.162;6.788;2024-03-17T15:39:52;11.30;96.70
55634;DHT22;41504;53.162;6.788;2024-03-17T15:42:17;11.30;96.50
55634;DHT22;41504;53.162;6.788;2024-03-17T15:44:45;11.30;96.90
55634;DHT22;41504;53.162;6.788;2024-03-17T15:47:11;11.30;97.00
55634;DHT22;41504;53.162;6.788;2024-03-17T15:49:36;11.30;96.60
55634;DHT22;41504;53.162;6.788;2024-03-17T15:52:02;11.30;96.00
55634;DHT22;41504;53.162;6.788;2024-03-17T15:54:28;11.30;96.60
55634;DHT22;41504;53.162;6.788;2024-03-17T15:56:55;11.30;96.80
55634;DHT22;41504;53.162;6.788;2024-03-17T15:59:20;11.30;97.00
55634;DHT22;41504;53.162;6.788;2024-03-17T16:01:48;11.30;97.10
55634;DHT22;41504;53.162;6.788;2024-03-17T16:04:18;11.30;96.50
55634;DHT22;41504;53.162;6.788;2024-03-17T16:06:44;11.30;97.10
55634;DHT22;41504;53.162;6.788;2024-03-17T16:09:13;11.30;97.80
55634;DHT22;41504;53.162;6.788;2024-03-17T16:11:39;11.30;98.20
55634;DHT22;41504;53.162;6.788;2024-03-17T16:14:06;11.30;98.40
55634;DHT22;41504;53.162;6.788;2024-03-17T16:16:33;11.30;99.10
55634;DHT22;41504;53.162;6.788;2024-03-17T16:18:59;11.30;99.60
55634;DHT22;41504;53.162;6.788;2024-03-17T16:21:26;11.30;99.90
55634;DHT22;41504;53.162;6.788;2024-03-17T16:24:11;11.30;99.90
55634;DHT22;41504;53.162;6.788;2024-03-17T16:26:37;11.30;99.90